Time;durP1;ratioP1;P1;durP2;ratioP2;P2;SDS_P1;SDS_P2;PMS_P1;PMS_P2;Temp;Humidity;BMP_temperature;BMP_pressure;BME280_temperature;BME280_humidity;BME280_pressure;Samples;Min_cycle;Max_cycle;Signal;HPM_P1;HPM_P2
2022/10/06 00:00:37;;;;;;;8.93;7.07;;;10.60;99.90;;;;;;5013201;28;20676;-76
2022/10/06 00:03:03;;;;;;;9.50;6.60;;;10.60;99.90;;;;;;5004048;28;20608;-75
2022/10/06 00:05:29;;;;;;;7.32;6.60;;;10.50;99.90;;;;;;5017059;28;20260;-76
2022/10/06 00:07:56;;;;;;;7.15;6.30;;;10.50;99.90;;;;;;5004581;28;20270;-76
2022/10/06 00:10:22;;;;;;;10.70;6.90;;;10.40;99.90;;;;;;5006574;28;20180;-75
2022/10/06 00:12:50;;;;;;;7.82;6.55;;;10.30;99.90;;;;;;5015390;28;20197;-75
2022/10/06 00:15:18;;;;;;;7.63;6.22;;;10.20;99.90;;;;;;5012011;28;20235;-76
2022/10/06 00:17:44;;;;;;;7.32;6.72;;;10.10;99.90;;;;;;5026108;28;20180;-75
2022/10/06 00:20:11;;;;;;;7.03;6.32;;;10.10;99.90;;;;;;5030492;28;20196;-74
2022/10/06 00:22:40;;;;;;;7.32;6.63;;;10.10;99.90;;;;;;5026526;28;20683;-76
2022/10/06 00:25:07;;;;;;;7.65;6.97;;;10.00;99.90;;;;;;5030218;28;20632;-76
2022/10/06 00:27:37;;;;;;;7.43;6.70;;;10.00;99.90;;;;;;5028697;28;20177;-75
2022/10/06 00:30:05;;;;;;;7.00;6.25;;;9.90;99.90;;;;;;5032072;28;20177;-76
2022/10/06 00:32:31;;;;;;;7.20;6.50;;;9.90;99.90;;;;;;5026263;28;20699;-76
2022/10/06 00:34:58;;;;;;;7.68;7.00;;;9.90;99.90;;;;;;5025534;28;20185;-75
2022/10/06 00:37:25;;;;;;;7.95;6.68;;;9.80;99.90;;;;;;5029571;28;20204;-76
2022/10/06 00:39:50;;;;;;;7.78;6.82;;;9.80;99.90;;;;;;5026327;28;20209;-75
2022/10/06 00:42:31;;;;;;;8.68;6.90;;;9.90;99.90;;;;;;5029476;28;20197;-75
2022/10/06 00:45:01;;;;;;;7.38;6.70;;;9.90;99.90;;;;;;5028586;28;20176;-75
2022/10/06 00:47:29;;;;;;;7.00;6.30;;;9.90;99.90;;;;;;5032121;28;20172;-76
2022/10/06 00:49:57;;;;;;;8.82;7.22;;;9.90;99.90;;;;;;5026177;28;20187;-75
2022/10/06 00:52:26;;;;;;;9.68;7.38;;;9.90;99.90;;;;;;5025740;28;20196;-75
2022/10/06 00:54:52;;;;;;;7.55;6.75;;;9.90;99.90;;;;;;5029995;28;20169;-74
2022/10/06 00:57:19;;;;;;;8.45;7.65;;;9.90;99.90;;;;;;5023628;28;20199;-75
2022/10/06 00:59:45;;;;;;;9.02;6.95;;;9.80;99.90;;;;;;5030706;28;20231;-77
2022/10/06 01:02:30;;;;;;;8.40;7.45;;;9.80;99.90;;;;;;5027808;28;20231;-75
2022/10/06 01:04:59;;;;;;;10.65;7.40;;;9.80;99.90;;;;;;5031301;28;20180;-75
2022/10/06 01:07:27;;;;;;;8.90;8.00;;;9.80;99.90;;;;;;5023524;28;20177;-74
2022/10/06 01:09:54;;;;;;;10.93;7.53;;;9.70;99.90;;;;;;5029578;28;20601;-74
2022/10/06 01:12:20;;;;;;;7.95;6.57;;;9.60;99.90;;;;;;5026432;28;20307;-75
2022/10/06 01:14:46;;;;;;;7.28;6.68;;;9.70;99.90;;;;;;5016893;28;20197;-74
2022/10/06 01:17:20;;;;;;;7.88;7.10;;;9.70;99.90;;;;;;5025921;28;20678;-74
2022/10/06 01:19:58;;;;;;;7.25;6.38;;;9.80;99.90;;;;;;5027510;28;20196;-76
2022/10/06 01:22:40;;;;;;;8.00;6.72;;;9.80;99.90;;;;;;5013680;28;20597;-76
2022/10/06 01:25:08;;;;;;;8.15;6.95;;;9.80;99.90;;;;;;5011877;28;20174;-76
2022/10/06 01:27:36;;;;;;;7.50;6.80;;;9.70;99.90;;;;;;5023021;28;20176;-76
2022/10/06 01:30:05;;;;;;;11.18;7.38;;;9.70;99.90;;;;;;5028567;28;20568;-76
2022/10/06 01:32:33;;;;;;;8.30;7.45;;;9.60;99.90;;;;;;5018944;28;20208;-76
2022/10/06 01:34:59;;;;;;;9.70;7.45;;;9.60;99.90;;;;;;5021610;28;20228;-75
2022/10/06 01:37:24;;;;;;;9.25;8.35;;;9.50;99.90;;;;;;5029211;28;20592;-76
2022/10/06 01:39:50;;;;;;;8.50;7.70;;;9.60;99.90;;;;;;5025592;28;20207;-76
2022/10/06 01:42:16;;;;;;;9.57;7.80;;;9.50;99.90;;;;;;5029714;28;20594;-76
2022/10/06 01:44:41;;;;;;;8.27;7.60;;;9.40;99.90;;;;;;5020527;28;20165;-76
2022/10/06 01:47:07;;;;;;;9.18;7.85;;;9.40;99.90;;;;;;5021931;28;20263;-76
2022/10/06 01:49:33;;;;;;;8.75;7.88;;;9.50;99.90;;;;;;5011938;28;20251;-76
2022/10/06 01:51:59;;;;;;;9.50;7.53;;;9.50;99.90;;;;;;5028625;28;20177;-81
2022/10/06 01:54:25;;;;;;;8.52;6.70;;;9.40;99.90;;;;;;5021093;28;20713;-77
2022/10/06 01:56:51;;;;;;;8.50;7.13;;;9.40;99.90;;;;;;5024474;28;20228;-77
2022/10/06 01:59:16;;;;;;;7.95;7.15;;;9.60;99.90;;;;;;5024367;28;20655;-74
2022/10/06 02:01:42;;;;;;;7.78;6.97;;;9.50;99.90;;;;;;5029545;28;20203;-75
2022/10/06 02:04:08;;;;;;;7.88;7.18;;;9.50;99.90;;;;;;5024763;28;20203;-74
2022/10/06 02:06:33;;;;;;;7.82;7.07;;;9.40;99.90;;;;;;5021412;28;20271;-74
2022/10/06 02:08:59;;;;;;;8.20;7.25;;;9.50;99.90;;;;;;5028043;28;20188;-74
2022/10/06 02:11:25;;;;;;;7.88;7.10;;;9.40;99.90;;;;;;5025427;28;20227;-74
2022/10/06 02:13:51;;;;;;;9.05;7.35;;;9.40;99.90;;;;;;5029464;28;20196;-74
2022/10/06 02:16:17;;;;;;;7.78;6.97;;;9.30;99.90;;;;;;5020414;28;20275;-74
2022/10/06 02:18:43;;;;;;;7.40;6.80;;;9.40;99.90;;;;;;5030030;28;20192;-75
2022/10/06 02:21:17;;;;;;;8.25;7.45;;;9.40;99.90;;;;;;5023505;28;20236;-75
2022/10/06 02:23:42;;;;;;;9.27;7.28;;;9.20;99.90;;;;;;5024759;28;20687;-75
2022/10/06 02:26:08;;;;;;;8.80;7.15;;;9.30;99.90;;;;;;5026490;28;20169;-75
2022/10/06 02:28:34;;;;;;;9.50;7.13;;;9.30;99.90;;;;;;5026751;28;20180;-75
2022/10/06 02:31:09;;;;;;;7.50;6.43;;;9.30;99.90;;;;;;5028979;28;20223;-75
2022/10/06 02:33:36;;;;;;;11.02;7.22;;;9.30;99.90;;;;;;5018579;28;20204;-75
2022/10/06 02:36:02;;;;;;;6.63;6.13;;;9.20;99.90;;;;;;5027217;28;20271;-75
2022/10/06 02:38:28;;;;;;;7.05;6.55;;;9.20;99.90;;;;;;5022954;28;20192;-75
2022/10/06 02:40:54;;;;;;;8.55;6.85;;;9.20;99.90;;;;;;5023668;28;20192;-75
2022/10/06 02:43:20;;;;;;;7.82;7.03;;;9.10;99.90;;;;;;5026088;28;20222;-75
2022/10/06 02:45:57;;;;;;;10.10;7.43;;;9.10;99.90;;;;;;5028551;28;20180;-75
2022/10/06 02:48:23;;;;;;;7.78;7.03;;;9.10;99.90;;;;;;5016514;28;20180;-75
2022/10/06 02:50:57;;;;;;;7.78;6.68;;;9.10;99.90;;;;;;5020675;28;20193;-74
2022/10/06 02:53:24;;;;;;;7.47;6.78;;;9.00;99.90;;;;;;5028778;28;20203;-75
2022/10/06 02:55:56;;;;;;;7.70;6.88;;;9.00;99.90;;;;;;5022053;28;20196;-76
2022/10/06 02:58:21;;;;;;;7.93;7.07;;;9.00;99.90;;;;;;5022465;28;20697;-79
2022/10/06 03:00:47;;;;;;;8.18;7.47;;;9.00;99.90;;;;;;5023629;28;20213;-75
2022/10/06 03:03:12;;;;;;;8.98;7.88;;;9.10;99.90;;;;;;5024507;28;20259;-75
2022/10/06 03:05:38;;;;;;;8.30;7.50;;;9.00;99.90;;;;;;5026381;28;20177;-75
2022/10/06 03:08:04;;;;;;;8.35;7.55;;;9.00;99.90;;;;;;5020507;28;20185;-76
2022/10/06 03:10:29;;;;;;;10.13;7.57;;;9.00;99.90;;;;;;5028969;28;20239;-79
2022/10/06 03:12:55;;;;;;;8.07;7.22;;;9.00;99.90;;;;;;5023398;28;20247;-76
2022/10/06 03:15:20;;;;;;;8.65;7.72;;;9.00;99.90;;;;;;5031673;28;20679;-76
2022/10/06 03:17:49;;;;;;;8.43;7.72;;;8.90;99.90;;;;;;5019446;28;20186;-76
2022/10/06 03:20:15;;;;;;;8.25;7.53;;;8.90;99.90;;;;;;5008341;28;20671;-76
2022/10/06 03:22:40;;;;;;;8.15;7.35;;;8.90;99.90;;;;;;5026323;28;20277;-76
2022/10/06 03:25:06;;;;;;;8.40;7.60;;;8.90;99.90;;;;;;5020306;28;20185;-76
2022/10/06 03:27:32;;;;;;;13.63;7.22;;;8.80;99.90;;;;;;5020476;28;20815;-75
2022/10/06 03:29:58;;;;;;;9.20;7.70;;;8.90;99.90;;;;;;5024000;28;20211;-76
2022/10/06 03:32:23;;;;;;;8.15;7.20;;;9.00;99.90;;;;;;5030817;28;20254;-75
2022/10/06 03:34:49;;;;;;;7.40;6.80;;;8.90;99.90;;;;;;5023122;28;20260;-75
2022/10/06 03:37:15;;;;;;;7.63;6.93;;;8.90;99.90;;;;;;5007701;28;20543;-75
2022/10/06 03:39:40;;;;;;;7.45;6.70;;;9.00;99.90;;;;;;5024516;28;20208;-75
2022/10/06 03:42:06;;;;;;;7.97;7.28;;;8.90;99.90;;;;;;5023290;28;20178;-75
2022/10/06 03:44:33;;;;;;;7.40;6.80;;;8.80;99.90;;;;;;5016677;28;20268;-76
2022/10/06 03:46:59;;;;;;;8.00;7.30;;;8.90;99.90;;;;;;5023537;28;20181;-76
2022/10/06 03:49:25;;;;;;;8.35;7.13;;;8.90;99.90;;;;;;5031061;28;20689;-76
2022/10/06 03:51:52;;;;;;;7.97;7.22;;;8.80;99.90;;;;;;5022899;28;20184;-75
2022/10/06 03:54:18;;;;;;;7.43;6.30;;;8.70;99.90;;;;;;5011100;28;20186;-76
2022/10/06 03:56:45;;;;;;;6.82;6.20;;;8.80;99.90;;;;;;5005498;28;20198;-75
2022/10/06 03:59:13;;;;;;;6.90;6.40;;;8.90;99.90;;;;;;5011285;28;20173;-75
2022/10/06 04:01:46;;;;;;;7.88;7.18;;;8.80;99.90;;;;;;5009641;28;20675;-75
2022/10/06 04:04:12;;;;;;;6.82;6.05;;;8.80;99.90;;;;;;5020363;28;20192;-75
2022/10/06 04:06:40;;;;;;;6.82;6.22;;;8.80;99.90;;;;;;5014461;28;20590;-76
2022/10/06 04:09:08;;;;;;;7.90;7.20;;;8.80;99.90;;;;;;5017171;28;20237;-75
2022/10/06 04:11:36;;;;;;;7.57;6.97;;;8.80;99.90;;;;;;5019262;28;20635;-75
2022/10/06 04:14:05;;;;;;;7.43;6.72;;;8.80;99.90;;;;;;5023964;28;20193;-75
2022/10/06 04:16:30;;;;;;;7.53;6.82;;;8.80;99.90;;;;;;5028950;28;20628;-76
2022/10/06 04:19:01;;;;;;;8.23;7.45;;;8.70;99.90;;;;;;5010872;28;20185;-76
2022/10/06 04:21:28;;;;;;;7.18;6.55;;;8.70;99.90;;;;;;5030734;28;20238;-75
2022/10/06 04:23:55;;;;;;;7.18;6.43;;;8.80;99.90;;;;;;5024856;28;20683;-75
2022/10/06 04:26:22;;;;;;;8.50;6.45;;;8.80;99.90;;;;;;5033839;28;20717;-76
2022/10/06 04:28:48;;;;;;;5.90;5.40;;;8.90;99.90;;;;;;5024780;28;20279;-76
2022/10/06 04:31:23;;;;;;;6.85;6.25;;;9.00;99.90;;;;;;5026204;28;20184;-75
2022/10/06 04:33:54;;;;;;;7.05;6.45;;;8.90;99.90;;;;;;5026715;28;20196;-75
2022/10/06 04:36:25;;;;;;;6.60;6.05;;;8.90;99.90;;;;;;5025679;28;20545;-74
2022/10/06 04:39:02;;;;;;;6.93;6.38;;;9.00;99.90;;;;;;5028294;28;20320;-75
2022/10/06 04:41:33;;;;;;;6.55;5.95;;;8.90;99.90;;;;;;5027301;28;20196;-75
2022/10/06 04:43:59;;;;;;;6.93;6.32;;;8.90;99.90;;;;;;5026999;28;20205;-75
2022/10/06 04:46:26;;;;;;;7.50;6.65;;;8.90;99.90;;;;;;5029238;28;20188;-74
2022/10/06 04:48:53;;;;;;;6.90;6.40;;;8.90;99.90;;;;;;5024578;28;20180;-74
2022/10/06 04:51:21;;;;;;;7.30;6.63;;;8.90;99.90;;;;;;5028658;28;20208;-74
2022/10/06 04:53:47;;;;;;;6.85;6.22;;;8.90;99.90;;;;;;5026043;28;20200;-74
2022/10/06 04:56:19;;;;;;;6.25;5.75;;;8.90;99.90;;;;;;5030648;28;20200;-74
2022/10/06 04:58:47;;;;;;;6.75;6.25;;;8.90;99.90;;;;;;5028323;28;20187;-74
2022/10/06 05:01:28;;;;;;;7.05;6.38;;;8.80;99.90;;;;;;5022107;28;20250;-75
2022/10/06 05:03:55;;;;;;;6.32;5.72;;;8.70;99.90;;;;;;5010229;28;20190;-74
2022/10/06 05:06:23;;;;;;;7.88;7.18;;;8.70;99.90;;;;;;5007344;28;20212;-74
2022/10/06 05:08:55;;;;;;;8.02;7.18;;;8.60;99.90;;;;;;5013951;28;20189;-76
2022/10/06 05:11:21;;;;;;;7.88;6.90;;;8.60;99.90;;;;;;5020006;28;20176;-75
2022/10/06 05:13:49;;;;;;;7.90;6.97;;;8.50;99.90;;;;;;5019888;28;20197;-75
2022/10/06 05:16:16;;;;;;;8.10;7.20;;;8.60;99.90;;;;;;5010418;28;20187;-77
2022/10/06 05:18:42;;;;;;;7.68;6.97;;;8.50;99.90;;;;;;5000950;28;20261;-74
2022/10/06 05:21:21;;;;;;;9.48;7.82;;;8.60;99.90;;;;;;5001861;28;20763;-74
2022/10/06 05:23:47;;;;;;;8.00;7.30;;;8.60;99.90;;;;;;5007045;28;20577;-75
2022/10/06 05:26:16;;;;;;;8.48;7.30;;;8.60;99.90;;;;;;5000742;28;20268;-74
2022/10/06 05:28:42;;;;;;;8.40;7.47;;;8.80;99.90;;;;;;5009351;28;20184;-73
2022/10/06 05:31:11;;;;;;;7.43;6.82;;;8.90;99.90;;;;;;5020105;28;20665;-74
2022/10/06 05:33:37;;;;;;;8.15;7.35;;;9.00;99.90;;;;;;5013610;28;20233;-74
2022/10/06 05:36:12;;;;;;;7.35;6.75;;;9.00;99.90;;;;;;5021161;28;20193;-76
2022/10/06 05:38:38;;;;;;;8.25;6.95;;;9.00;99.90;;;;;;5017606;28;20181;-75
2022/10/06 05:41:18;;;;;;;8.75;6.82;;;9.10;99.90;;;;;;5026493;28;20197;-76
2022/10/06 05:43:45;;;;;;;7.22;6.65;;;9.20;99.90;;;;;;5019247;28;20194;-74
2022/10/06 05:46:16;;;;;;;8.55;7.75;;;9.10;99.90;;;;;;5013078;28;20191;-75
2022/10/06 05:48:45;;;;;;;7.72;7.07;;;9.10;99.90;;;;;;5005450;28;20200;-76
2022/10/06 05:51:11;;;;;;;6.88;6.38;;;9.10;99.90;;;;;;5002648;28;20177;-77
2022/10/06 05:53:36;;;;;;;6.68;5.97;;;9.10;99.90;;;;;;5009625;28;20201;-77
2022/10/06 05:56:17;;;;;;;7.05;6.30;;;9.10;99.90;;;;;;5009129;28;21290;-76
2022/10/06 05:58:44;;;;;;;6.25;5.75;;;9.20;99.90;;;;;;5006710;28;20196;-76
2022/10/06 06:01:18;;;;;;;6.25;5.75;;;9.30;99.90;;;;;;5007597;28;20208;-76
2022/10/06 06:03:55;;;;;;;7.70;6.25;;;9.40;99.90;;;;;;5006313;28;20247;-76
2022/10/06 06:06:23;;;;;;;6.40;5.80;;;9.50;99.90;;;;;;5002943;28;20177;-77
2022/10/06 06:09:00;;;;;;;5.78;5.28;;;9.50;99.90;;;;;;5005385;28;20181;-77
2022/10/06 06:11:28;;;;;;;5.45;4.95;;;9.60;99.90;;;;;;5006086;28;20192;-77
2022/10/06 06:13:58;;;;;;;5.88;5.38;;;9.60;99.90;;;;;;5002202;28;20345;-73
2022/10/06 06:16:24;;;;;;;6.10;5.60;;;9.70;99.90;;;;;;5006039;28;20181;-77
2022/10/06 06:18:50;;;;;;;5.53;5.05;;;9.80;99.90;;;;;;5000177;28;20655;-76
2022/10/06 06:21:16;;;;;;;10.32;6.18;;;9.90;99.90;;;;;;5009323;28;20200;-77
2022/10/06 06:23:45;;;;;;;6.97;6.15;;;10.00;99.90;;;;;;5006368;28;20248;-77
2022/10/06 06:26:18;;;;;;;6.85;6.25;;;10.10;99.90;;;;;;5007208;28;20173;-78
2022/10/06 06:28:47;;;;;;;6.55;5.93;;;10.20;99.90;;;;;;5004573;28;20193;-79
2022/10/06 06:31:19;;;;;;;6.90;6.15;;;10.40;99.90;;;;;;5008818;28;20239;-76
2022/10/06 06:33:46;;;;;;;7.00;6.35;;;10.60;99.90;;;;;;5010360;28;20200;-76
2022/10/06 06:36:13;;;;;;;6.47;5.90;;;10.80;99.90;;;;;;5007369;28;20185;-75
2022/10/06 06:38:39;;;;;;;6.40;5.78;;;11.00;99.90;;;;;;5003849;28;20205;-75
2022/10/06 06:41:18;;;;;;;5.80;5.40;;;11.10;99.90;;;;;;5001789;28;20200;-74
2022/10/06 06:43:44;;;;;;;6.28;5.78;;;11.20;99.90;;;;;;5005326;28;20561;-75
2022/10/06 06:46:14;;;;;;;6.15;5.55;;;11.20;99.90;;;;;;5006985;28;20184;-79
2022/10/06 06:48:41;;;;;;;7.25;6.65;;;11.30;99.90;;;;;;5011435;28;20529;-76
2022/10/06 06:51:25;;;;;;;7.38;6.68;;;11.40;99.90;;;;;;5007468;28;20268;-78
2022/10/06 06:53:51;;;;;;;7.68;6.38;;;11.50;99.90;;;;;;5009904;28;20205;-78
2022/10/06 06:56:20;;;;;;;6.78;5.95;;;11.70;99.90;;;;;;5017747;28;20576;-77
2022/10/06 06:58:46;;;;;;;6.85;6.20;;;11.90;99.90;;;;;;5017205;28;20181;-77
2022/10/06 07:01:20;;;;;;;7.30;6.18;;;12.00;99.90;;;;;;5005082;28;20204;-79
2022/10/06 07:03:51;;;;;;;6.43;5.93;;;12.00;99.90;;;;;;5019116;28;20611;-77
2022/10/06 07:06:17;;;;;;;6.95;6.35;;;12.00;99.90;;;;;;5012106;28;20193;-77
2022/10/06 07:08:45;;;;;;;7.10;6.38;;;11.90;99.90;;;;;;5015861;28;20196;-78
2022/10/06 07:11:12;;;;;;;8.38;6.25;;;12.00;99.90;;;;;;5014799;28;20615;-77
2022/10/06 07:13:38;;;;;;;7.00;6.38;;;12.00;99.90;;;;;;5015231;28;20201;-78
2022/10/06 07:27:02;;;;;;;5.82;5.25;;;13.00;99.90;;;;;;5012061;28;20183;-78
2022/10/06 07:29:28;;;;;;;5.40;4.95;;;13.20;99.90;;;;;;5000983;28;20643;-81
2022/10/06 07:31:53;;;;;;;5.88;4.75;;;13.40;99.90;;;;;;4994063;28;20188;-77
2022/10/06 07:34:20;;;;;;;5.30;4.70;;;13.70;99.90;;;;;;5004974;28;20261;-79
2022/10/06 07:36:52;;;;;;;4.65;4.25;;;13.90;99.90;;;;;;4997235;28;20169;-77
2022/10/06 07:39:19;;;;;;;4.82;4.47;;;14.00;99.90;;;;;;5002401;28;20545;-78
2022/10/06 07:41:44;;;;;;;6.25;4.85;;;14.00;99.90;;;;;;5008376;28;20265;-77
2022/10/06 07:44:10;;;;;;;5.18;4.68;;;14.20;99.90;;;;;;5019172;28;20667;-77
2022/10/06 07:46:36;;;;;;;4.90;4.53;;;14.20;99.90;;;;;;5009092;28;20272;-78
2022/10/06 07:49:01;;;;;;;5.28;4.78;;;14.20;99.90;;;;;;5022181;28;20668;-79
2022/10/06 07:51:27;;;;;;;7.18;5.22;;;14.30;99.90;;;;;;5008102;28;20272;-79
2022/10/06 07:53:53;;;;;;;4.97;4.53;;;14.50;99.90;;;;;;5021064;28;20682;-78
2022/10/06 07:56:19;;;;;;;6.70;4.88;;;14.80;99.90;;;;;;5012913;28;20213;-77
2022/10/06 07:58:46;;;;;;;7.35;5.05;;;14.80;99.90;;;;;;5018544;28;20256;-77
2022/10/06 08:01:14;;;;;;;5.85;4.82;;;15.00;99.90;;;;;;5013062;28;20856;-77
2022/10/06 08:03:41;;;;;;;8.20;5.38;;;15.00;99.90;;;;;;5024890;28;20204;-78
2022/10/06 08:06:13;;;;;;;5.88;4.80;;;15.10;99.90;;;;;;5020713;28;20238;-78
2022/10/06 08:08:39;;;;;;;6.07;4.95;;;15.20;99.90;;;;;;5028389;28;20193;-78
2022/10/06 08:11:06;;;;;;;5.05;4.55;;;15.30;99.90;;;;;;5028507;28;20184;-77
2022/10/06 08:13:35;;;;;;;4.78;4.40;;;15.50;99.90;;;;;;5012691;28;20288;-78
2022/10/06 08:16:05;;;;;;;6.93;4.50;;;15.90;99.90;;;;;;5039657;28;20265;-78
2022/10/06 08:18:30;;;;;;;4.35;4.05;;;16.10;99.90;;;;;;5018322;28;20187;-78
2022/10/06 08:20:57;;;;;;;5.10;4.05;;;16.20;99.90;;;;;;5018026;28;20201;-78
2022/10/06 08:23:23;;;;;;;7.53;5.50;;;16.10;99.90;;;;;;5016297;28;20647;-78
2022/10/06 08:25:53;;;;;;;4.32;4.03;;;16.00;99.90;;;;;;5025707;28;20185;-78
2022/10/06 08:28:19;;;;;;;5.28;4.72;;;16.10;99.90;;;;;;5018368;28;20176;-77
2022/10/06 08:30:45;;;;;;;4.43;4.10;;;16.20;99.90;;;;;;5009692;28;20193;-77
2022/10/06 08:33:11;;;;;;;4.05;3.75;;;16.40;99.90;;;;;;5015088;28;20208;-78
2022/10/06 08:35:38;;;;;;;4.75;4.35;;;16.60;99.90;;;;;;5015093;28;20198;-77
2022/10/06 08:38:04;;;;;;;4.35;4.05;;;16.70;99.90;;;;;;5010613;28;20191;-77
2022/10/06 08:40:30;;;;;;;4.68;4.28;;;16.70;99.90;;;;;;5013834;28;20213;-78
2022/10/06 08:42:59;;;;;;;4.50;4.10;;;16.80;99.90;;;;;;5015326;28;20201;-77
2022/10/06 08:45:33;;;;;;;6.47;4.55;;;16.80;99.90;;;;;;5010411;28;20173;-77
2022/10/06 08:48:10;;;;;;;4.55;4.25;;;16.80;99.90;;;;;;5020939;28;20162;-77
2022/10/06 08:50:59;;;;;;;4.65;4.22;;;16.80;99.90;;;;;;5017011;28;20185;-77
2022/10/06 08:53:48;;;;;;;5.18;4.22;;;16.90;99.90;;;;;;5015755;28;20207;-76
2022/10/06 08:56:18;;;;;;;5.10;4.68;;;16.80;99.90;;;;;;5006737;28;20280;-76
2022/10/06 08:58:57;;;;;;;4.50;4.03;;;16.70;99.90;;;;;;5007137;28;20280;-77
2022/10/06 09:01:25;;;;;;;5.13;4.13;;;17.40;99.90;;;;;;5007914;28;20268;-77
2022/10/06 09:04:00;;;;;;;4.95;4.43;;;18.70;99.90;;;;;;5016758;28;20666;-76
2022/10/06 09:06:47;;;;;;;4.07;3.72;;;19.80;99.90;;;;;;5015168;28;21428;-77
2022/10/06 09:09:13;;;;;;;4.72;4.32;;;21.30;99.90;;;;;;5015806;28;20183;-77
2022/10/06 09:11:41;;;;;;;5.15;4.07;;;22.30;99.90;;;;;;5012418;28;20541;-77
2022/10/06 09:14:29;;;;;;;6.32;4.20;;;23.60;99.90;;;;;;5010067;28;20288;-77
2022/10/06 09:17:01;;;;;;;4.30;3.75;;;25.30;99.90;;;;;;5014220;28;20193;-78
2022/10/06 09:19:34;;;;;;;4.20;3.90;;;26.70;97.80;;;;;;5013842;28;20990;-75
2022/10/06 09:22:03;;;;;;;3.65;3.45;;;28.10;92.00;;;;;;5006937;28;20177;-75
2022/10/06 09:24:32;;;;;;;5.30;3.25;;;29.10;86.10;;;;;;5006147;28;20169;-76
2022/10/06 09:26:57;;;;;;;4.47;3.10;;;30.10;81.40;;;;;;5005998;28;20327;-75
2022/10/06 09:29:24;;;;;;;3.45;3.08;;;31.00;73.60;;;;;;5004220;28;20653;-75
2022/10/06 09:31:49;;;;;;;3.30;3.00;;;31.90;69.60;;;;;;5008060;28;20205;-75
2022/10/06 09:34:40;;;;;;;3.55;3.28;;;32.60;67.30;;;;;;5005684;28;20224;-76
2022/10/06 09:37:09;;;;;;;3.65;3.20;;;33.20;63.20;;;;;;5007532;28;20271;-76
2022/10/06 09:39:48;;;;;;;3.92;3.30;;;33.80;59.60;;;;;;5005500;28;20517;-72
2022/10/06 09:42:21;;;;;;;3.28;3.08;;;34.30;58.90;;;;;;5007011;28;20188;-70
2022/10/06 09:45:04;;;;;;;5.20;3.10;;;34.50;58.00;;;;;;5013383;28;20164;-72
2022/10/06 09:47:35;;;;;;;6.47;3.20;;;34.60;57.30;;;;;;5015341;28;20169;-71
2022/10/06 09:50:13;;;;;;;4.50;3.05;;;34.80;56.10;;;;;;5023193;28;20234;-72
2022/10/06 09:52:40;;;;;;;7.78;3.75;;;35.10;56.40;;;;;;5020194;28;20200;-73
2022/10/06 09:55:12;;;;;;;3.85;3.50;;;35.70;54.20;;;;;;5008000;28;20189;-73
2022/10/06 09:57:45;;;;;;;3.67;2.83;;;36.40;53.70;;;;;;5006976;28;20192;-72
2022/10/06 10:00:37;;;;;;;3.08;2.55;;;37.10;52.00;;;;;;5007084;28;20203;-72
2022/10/06 10:03:10;;;;;;;3.40;3.10;;;37.40;51.30;;;;;;5002706;28;20703;-76
2022/10/06 10:05:45;;;;;;;6.80;3.38;;;37.50;50.60;;;;;;5003733;28;20537;-73
2022/10/06 10:08:22;;;;;;;3.28;2.60;;;36.90;51.40;;;;;;5005251;28;20271;-71
2022/10/06 10:10:49;;;;;;;4.82;2.88;;;37.10;50.70;;;;;;5003605;28;20238;-71
2022/10/06 10:13:23;;;;;;;3.78;3.05;;;36.30;52.20;;;;;;5010320;28;20235;-70
2022/10/06 10:15:58;;;;;;;4.03;2.75;;;35.90;52.80;;;;;;5002631;28;20251;-72
2022/10/06 10:18:27;;;;;;;6.50;3.03;;;36.40;52.80;;;;;;5008583;28;20164;-69
2022/10/06 10:21:05;;;;;;;3.22;2.60;;;36.90;50.30;;;;;;5003179;28;20224;-69
2022/10/06 10:23:38;;;;;;;5.22;3.13;;;35.90;51.90;;;;;;5009582;28;20196;-70
2022/10/06 10:26:16;;;;;;;5.20;3.33;;;34.50;53.80;;;;;;5009533;28;20180;-70
2022/10/06 10:29:29;;;;;;;12.07;3.88;;;33.20;55.90;;;;;;5008103;28;20172;-69
2022/10/06 10:32:17;;;;;;;6.32;2.78;;;31.50;59.40;;;;;;5009872;28;20203;-69
2022/10/06 10:34:57;;;;;;;5.30;2.45;;;29.60;64.20;;;;;;4998876;28;20551;-70
2022/10/06 10:37:46;;;;;;;2.45;2.25;;;28.20;68.90;;;;;;5001781;28;20199;-69
2022/10/06 10:40:35;;;;;;;3.15;2.28;;;27.70;72.60;;;;;;4999140;28;20193;-69
2022/10/06 10:43:10;;;;;;;3.22;2.42;;;27.30;72.90;;;;;;5005455;28;20619;-70
2022/10/06 10:45:42;;;;;;;5.03;2.47;;;26.80;75.00;;;;;;5009315;28;20172;-71
2022/10/06 10:48:20;;;;;;;3.35;2.47;;;26.80;74.50;;;;;;5001788;28;20183;-70
2022/10/06 10:50:48;;;;;;;3.33;2.10;;;26.80;75.70;;;;;;4997135;28;20193;-72
2022/10/06 10:53:36;;;;;;;2.03;1.88;;;27.20;74.50;;;;;;4995900;28;20830;-72
2022/10/06 10:56:06;;;;;;;4.43;2.22;;;27.10;75.00;;;;;;5005391;28;20916;-71
2022/10/06 10:58:38;;;;;;;2.35;2.05;;;26.50;75.80;;;;;;5005317;28;20191;-72
2022/10/06 11:01:08;;;;;;;1.80;1.70;;;25.80;79.40;;;;;;5002613;28;20209;-71
2022/10/06 11:03:34;;;;;;;3.17;2.03;;;25.50;80.80;;;;;;5006702;28;20255;-72
2022/10/06 11:06:17;;;;;;;2.10;2.00;;;25.60;81.70;;;;;;5012863;28;20185;-72
2022/10/06 11:09:08;;;;;;;4.03;2.05;;;25.40;82.00;;;;;;5008025;28;20263;-72
2022/10/06 11:11:58;;;;;;;3.28;2.88;;;25.40;82.20;;;;;;5011461;28;20180;-74
2022/10/06 11:14:35;;;;;;;2.97;2.20;;;25.30;82.90;;;;;;5007094;28;20698;-74
2022/10/06 11:17:17;;;;;;;1.95;1.80;;;25.40;82.20;;;;;;5013040;28;20592;-74
2022/10/06 11:19:58;;;;;;;1.95;1.85;;;25.30;83.00;;;;;;5010637;28;20596;-73
2022/10/06 11:22:40;;;;;;;2.30;2.10;;;26.40;82.90;;;;;;5008517;28;20292;-74
2022/10/06 11:25:35;;;;;;;2.35;1.98;;;29.80;73.80;;;;;;4995237;28;20174;-75
2022/10/06 11:28:26;;;;;;;2.03;1.85;;;32.40;65.90;;;;;;5011314;28;20658;-73
2022/10/06 11:31:21;;;;;;;1.73;1.63;;;34.60;60.10;;;;;;5018606;28;20185;-74
2022/10/06 11:33:53;;;;;;;1.83;1.73;;;35.50;56.60;;;;;;5005718;28;20196;-71
2022/10/06 11:36:30;;;;;;;2.10;1.80;;;35.70;54.90;;;;;;5012834;28;20881;-71
2022/10/06 11:39:14;;;;;;;1.77;1.67;;;35.80;55.30;;;;;;5017294;28;20862;-70
2022/10/06 11:41:48;;;;;;;1.45;1.45;;;36.70;54.40;;;;;;5007265;28;20212;-70
2022/10/06 11:44:25;;;;;;;1.58;1.48;;;36.80;52.80;;;;;;5022907;28;20197;-70
2022/10/06 11:47:21;;;;;;;1.38;1.38;;;36.70;52.40;;;;;;5016686;28;20165;-72
2022/10/06 11:49:52;;;;;;;2.05;1.40;;;37.40;51.70;;;;;;5015921;28;20200;-71
2022/10/06 11:52:17;;;;;;;1.45;1.35;;;37.20;51.80;;;;;;5008844;28;20199;-71
2022/10/06 11:54:54;;;;;;;1.38;1.27;;;37.80;50.80;;;;;;5002046;28;20169;-71
2022/10/06 11:57:22;;;;;;;1.02;1.02;;;38.20;50.00;;;;;;5016518;28;20206;-71
2022/10/06 11:59:52;;;;;;;1.67;1.40;;;38.80;49.40;;;;;;5017813;28;20197;-70
2022/10/06 12:02:38;;;;;;;1.50;1.50;;;38.50;48.60;;;;;;5022599;28;20286;-71
2022/10/06 12:05:13;;;;;;;1.40;1.33;;;37.60;49.80;;;;;;5004596;28;20176;-71
2022/10/06 12:07:56;;;;;;;2.58;1.10;;;35.70;51.10;;;;;;5017346;28;20588;-71
2022/10/06 12:10:28;;;;;;;1.42;1.33;;;34.90;53.30;;;;;;5008158;28;20176;-71
2022/10/06 12:13:06;;;;;;;1.40;1.30;;;34.40;54.10;;;;;;5020584;28;20702;-72
2022/10/06 12:15:53;;;;;;;3.60;1.60;;;34.60;52.60;;;;;;5010632;28;20184;-72
2022/10/06 12:18:47;;;;;;;3.25;1.42;;;34.10;53.40;;;;;;5016797;28;20176;-72
2022/10/06 12:21:24;;;;;;;1.50;1.40;;;33.90;54.10;;;;;;5009144;28;20187;-71
2022/10/06 12:23:54;;;;;;;1.35;1.25;;;33.00;54.80;;;;;;5018972;28;20699;-71
2022/10/06 12:26:25;;;;;;;2.28;1.23;;;32.60;55.50;;;;;;5009157;28;20180;-71
2022/10/06 12:29:29;;;;;;;2.33;1.13;;;32.40;56.60;;;;;;5020333;28;20636;-70
2022/10/06 12:32:06;;;;;;;1.25;1.15;;;33.30;55.30;;;;;;5001253;28;20604;-71
2022/10/06 12:34:38;;;;;;;2.22;1.13;;;33.00;55.10;;;;;;5005854;28;20251;-72
2022/10/06 12:37:40;;;;;;;1.08;1.00;;;31.50;56.80;;;;;;5009063;28;20254;-71
2022/10/06 12:40:43;;;;;;;1.50;1.40;;;29.90;60.60;;;;;;5011002;28;20282;-72
2022/10/06 12:43:21;;;;;;;2.78;1.20;;;29.00;61.60;;;;;;5020199;28;20278;-71
2022/10/06 12:45:54;;;;;;;1.92;1.17;;;28.30;64.00;;;;;;5020250;28;20176;-72
2022/10/06 12:48:20;;;;;;;2.33;1.00;;;27.90;65.80;;;;;;5011244;28;20203;-72
2022/10/06 12:50:48;;;;;;;1.38;0.90;;;27.60;64.80;;;;;;5010420;28;20185;-73
2022/10/06 12:53:24;;;;;;;1.00;0.93;;;26.80;66.10;;;;;;5012207;28;20254;-74
2022/10/06 12:55:55;;;;;;;3.05;1.10;;;26.60;68.20;;;;;;5018378;28;20200;-73
2022/10/06 12:58:31;;;;;;;1.20;1.10;;;26.80;68.70;;;;;;5022561;28;20172;-72
2022/10/06 13:01:11;;;;;;;3.03;0.82;;;27.10;68.00;;;;;;5014588;28;20245;-73
2022/10/06 13:03:38;;;;;;;0.70;0.70;;;26.90;69.10;;;;;;5014272;28;20228;-74
2022/10/06 13:06:06;;;;;;;5.72;1.30;;;26.60;69.90;;;;;;5019447;28;20191;-72
2022/10/06 13:08:36;;;;;;;2.85;1.10;;;26.50;69.20;;;;;;5013916;28;20177;-72
2022/10/06 13:11:23;;;;;;;1.23;0.68;;;26.10;70.30;;;;;;5023873;28;20271;-72
2022/10/06 13:13:51;;;;;;;2.63;1.10;;;25.90;70.20;;;;;;5010157;28;20220;-72
2022/10/06 13:16:22;;;;;;;1.38;1.00;;;25.90;70.10;;;;;;5026167;28;20295;-73
2022/10/06 13:18:52;;;;;;;3.03;1.25;;;25.40;72.70;;;;;;5016118;28;20545;-71
2022/10/06 13:21:17;;;;;;;0.80;0.80;;;25.60;71.70;;;;;;5006142;28;20201;-73